createdAt,value
2018-08-18T00:01:30.335Z,99966.00
2018-08-18T00:03:34.846Z,99966.00
2018-08-18T00:05:39.374Z,99954.00
2018-08-18T00:07:44.069Z,99964.00
2018-08-18T00:09:48.486Z,99958.00
2018-08-18T00:11:53.140Z,99963.00
2018-08-18T00:13:57.738Z,99962.00
2018-08-18T00:16:02.293Z,99972.00
2018-08-18T00:18:06.822Z,99964.00
2018-08-18T00:20:14.730Z,99967.00
2018-08-18T00:22:19.234Z,99960.00
2018-08-18T00:24:23.731Z,99963.00
2018-08-18T00:26:28.587Z,99957.00
2018-08-18T00:28:33.167Z,99965.00
2018-08-18T00:30:38.242Z,99959.00
2018-08-18T00:32:42.716Z,99955.00
2018-08-18T00:34:52.169Z,99959.00
2018-08-18T00:37:00.653Z,99960.00
2018-08-18T00:39:10.987Z,99965.00
2018-08-18T00:41:15.609Z,99962.00
2018-08-18T00:43:20.160Z,99963.00
2018-08-18T00:45:24.652Z,99966.00
2018-08-18T00:47:29.091Z,99967.00
2018-08-18T00:49:33.595Z,99962.00
2018-08-18T00:51:41.067Z,99966.00
2018-08-18T00:53:47.364Z,99963.00
2018-08-18T00:55:51.803Z,99965.00
2018-08-18T00:57:56.303Z,99962.00
2018-08-18T01:00:00.959Z,99961.00
2018-08-18T01:02:08.318Z,99963.00
2018-08-18T01:04:15.793Z,99963.00
2018-08-18T01:06:33.955Z,99956.00
2018-08-18T01:08:41.065Z,99969.00
2018-08-18T01:10:48.435Z,99968.00
2018-08-18T01:12:55.897Z,99970.00
2018-08-18T01:15:04.310Z,99970.00
2018-08-18T01:17:11.983Z,99964.00
2018-08-18T01:19:22.422Z,99961.00
2018-08-18T01:21:29.860Z,99965.00
2018-08-18T01:23:37.344Z,99979.00
2018-08-18T01:25:43.910Z,99980.00
2018-08-18T01:27:55.478Z,99982.00
2018-08-18T01:30:04.624Z,99971.00
2018-08-18T01:32:12.185Z,99971.00
2018-08-18T01:34:20.590Z,99980.00
2018-08-18T01:36:27.296Z,99973.00
2018-08-18T01:38:37.876Z,99976.00
2018-08-18T01:40:46.583Z,99976.00
2018-08-18T01:42:53.614Z,99974.00
2018-08-18T01:44:59.379Z,99976.00
2018-08-18T01:47:12.420Z,99975.00
2018-08-18T01:49:40.142Z,99972.00
2018-08-18T01:51:46.772Z,99977.00
2018-08-18T01:53:54.763Z,99985.00
2018-08-18T01:55:59.215Z,99977.00
2018-08-18T01:58:06.222Z,99977.00
2018-08-18T02:00:28.685Z,99978.00
2018-08-18T02:02:36.479Z,99986.00
2018-08-18T02:04:44.814Z,99991.00
2018-08-18T02:06:51.173Z,99976.00
2018-08-18T02:09:03.503Z,99987.00
2018-08-18T02:11:09.962Z,99981.00
2018-08-18T02:13:15.661Z,99987.00
2018-08-18T02:15:21.466Z,99983.00
2018-08-18T02:17:38.096Z,99984.00
2018-08-18T02:19:44.738Z,99988.00
2018-08-18T02:21:53.352Z,99989.00
2018-08-18T02:23:59.015Z,99989.00
2018-08-18T02:26:03.523Z,99985.00
2018-08-18T02:28:08.951Z,99988.00
2018-08-18T02:30:19.558Z,99990.00
2018-08-18T02:32:31.173Z,99983.00
2018-08-18T02:34:35.646Z,99989.00
2018-08-18T02:36:40.161Z,99992.00
2018-08-18T02:38:49.549Z,99988.00
2018-08-18T02:40:54.027Z,99985.00
2018-08-18T02:42:58.563Z,99984.00
2018-08-18T02:45:03.072Z,99986.00
2018-08-18T02:47:07.530Z,99986.00
2018-08-18T02:49:11.959Z,99987.00
2018-08-18T02:51:16.389Z,99991.00
2018-08-18T02:53:26.455Z,99993.00
2018-08-18T02:55:30.912Z,99992.00
2018-08-18T02:57:36.430Z,99993.00
2018-08-18T02:59:40.855Z,99994.00
2018-08-18T03:01:45.347Z,100000.00
2018-08-18T03:03:49.768Z,99991.00
2018-08-18T03:05:57.621Z,99999.00
2018-08-18T03:08:02.156Z,99990.00
2018-08-18T03:10:14.601Z,99989.00
2018-08-18T03:12:19.142Z,99995.00
2018-08-18T03:14:23.875Z,99989.00
2018-08-18T03:16:28.314Z,99993.00
2018-08-18T03:18:50.873Z,99992.00
2018-08-18T03:20:55.403Z,99999.00
2018-08-18T03:22:59.858Z,100000.00
2018-08-18T03:25:04.358Z,100002.00
2018-08-18T03:27:08.846Z,99997.00
2018-08-18T03:29:14.244Z,100003.00
2018-08-18T03:31:18.970Z,100001.00
2018-08-18T03:33:23.406Z,100002.00
2018-08-18T03:35:27.837Z,100007.00
2018-08-18T03:37:32.678Z,100004.00
2018-08-18T03:39:37.103Z,100012.00
2018-08-18T03:41:41.601Z,100013.00
2018-08-18T03:43:46.003Z,100002.00
2018-08-18T03:45:50.478Z,100006.00
2018-08-18T03:47:54.922Z,100014.00
2018-08-18T03:49:59.367Z,100004.00
2018-08-18T03:52:03.995Z,100012.00
2018-08-18T03:54:08.430Z,100015.00
2018-08-18T03:56:12.939Z,100021.00
2018-08-18T03:58:17.397Z,100014.00
2018-08-18T04:00:21.859Z,100017.00
2018-08-18T04:02:29.132Z,100018.00
2018-08-18T04:04:38.453Z,100013.00
2018-08-18T04:06:47.891Z,100016.00
2018-08-18T04:08:54.515Z,100022.00
2018-08-18T04:11:00.226Z,100021.00
2018-08-18T04:13:07.345Z,100024.00
2018-08-18T04:15:11.942Z,100028.00
2018-08-18T04:17:31.217Z,100021.00
2018-08-18T04:19:35.642Z,100020.00
2018-08-18T04:21:40.176Z,100031.00
2018-08-18T04:23:44.609Z,100030.00
2018-08-18T04:25:49.074Z,100020.00
2018-08-18T04:27:53.526Z,100034.00
2018-08-18T04:29:57.962Z,100022.00
2018-08-18T04:32:02.862Z,100031.00
2018-08-18T04:34:08.497Z,100029.00
2018-08-18T04:36:12.927Z,100034.00
2018-08-18T04:38:17.396Z,100034.00
2018-08-18T04:40:22.614Z,100035.00
2018-08-18T04:42:27.851Z,100033.00
2018-08-18T04:44:36.580Z,100033.00
2018-08-18T04:46:41.319Z,100033.00
2018-08-18T04:48:45.779Z,100043.00
2018-08-18T04:50:50.236Z,100029.00
2018-08-18T04:52:55.296Z,100036.00
2018-08-18T04:54:59.720Z,100035.00
2018-08-18T04:57:04.259Z,100039.00
2018-08-18T04:59:08.706Z,100039.00
2018-08-18T05:01:13.178Z,100041.00
2018-08-18T05:03:17.652Z,100054.00
2018-08-18T05:05:25.914Z,100040.00
2018-08-18T05:07:34.513Z,100039.00
2018-08-18T05:09:40.254Z,100035.00
2018-08-18T05:11:44.768Z,100041.00
2018-08-18T05:13:49.358Z,100049.00
2018-08-18T05:15:53.907Z,100039.00
2018-08-18T05:17:59.500Z,100046.00
2018-08-18T05:20:18.574Z,100039.00
2018-08-18T05:22:23.073Z,100044.00
2018-08-18T05:24:30.720Z,100033.00
2018-08-18T05:26:35.418Z,100039.00
2018-08-18T05:28:39.876Z,100035.00
2018-08-18T05:30:44.420Z,100032.00
2018-08-18T05:32:48.914Z,100035.00
2018-08-18T05:34:53.502Z,100033.00
2018-08-18T05:36:59.033Z,100033.00
2018-08-18T05:39:03.887Z,100033.00
2018-08-18T05:41:08.588Z,100037.00
2018-08-18T05:43:13.054Z,100043.00
2018-08-18T05:45:38.510Z,100042.00
2018-08-18T05:47:43.081Z,100041.00
2018-08-18T05:49:47.432Z,100036.00
2018-08-18T05:51:52.658Z,100034.00
2018-08-18T05:53:57.145Z,100035.00
2018-08-18T05:56:05.108Z,100032.00
2018-08-18T05:58:09.857Z,100029.00
2018-08-18T06:00:19.820Z,100024.00
2018-08-18T06:02:25.234Z,100031.00
2018-08-18T06:04:29.661Z,100032.00
2018-08-18T06:06:34.182Z,100038.00
2018-08-18T06:08:38.699Z,100036.00
2018-08-18T06:10:43.666Z,100039.00
2018-08-18T06:12:50.429Z,100036.00
2018-08-18T06:14:58.256Z,100044.00
2018-08-18T06:17:04.839Z,100054.00
2018-08-18T06:19:10.571Z,100048.00
2018-08-18T06:21:16.566Z,100038.00
2018-08-18T06:23:21.273Z,100040.00
2018-08-18T06:25:29.281Z,100046.00
2018-08-18T06:27:34.281Z,100048.00
2018-08-18T06:29:38.685Z,100041.00
2018-08-18T06:32:01.729Z,100044.00
2018-08-18T06:34:06.207Z,100049.00
2018-08-18T06:36:10.680Z,100043.00
2018-08-18T06:38:15.131Z,100062.00
2018-08-18T06:40:19.803Z,100053.00
2018-08-18T06:42:36.690Z,100059.00
2018-08-18T06:44:41.172Z,100060.00
2018-08-18T06:46:47.678Z,100055.00
2018-08-18T06:48:52.167Z,100053.00
2018-08-18T06:50:56.711Z,100055.00
2018-08-18T06:53:01.237Z,100060.00
2018-08-18T06:55:06.735Z,100056.00
2018-08-18T06:57:11.451Z,100057.00
2018-08-18T06:59:15.940Z,100061.00
2018-08-18T07:01:20.472Z,100057.00
2018-08-18T07:03:37.488Z,100057.00
2018-08-18T07:05:42.193Z,100063.00
2018-08-18T07:07:47.500Z,100073.00
2018-08-18T07:09:51.967Z,100060.00
2018-08-18T07:11:56.452Z,100054.00
2018-08-18T07:14:01.131Z,100050.00
2018-08-18T07:16:05.733Z,100045.00
2018-08-18T07:18:12.103Z,100047.00
2018-08-18T07:20:16.585Z,100057.00
2018-08-18T07:22:25.373Z,100059.00
2018-08-18T07:24:30.093Z,100052.00
2018-08-18T07:26:34.558Z,100054.00
2018-08-18T07:28:40.786Z,100058.00
2018-08-18T07:30:45.463Z,100058.00
2018-08-18T07:32:49.965Z,100054.00
2018-08-18T07:34:54.562Z,100052.00
2018-08-18T07:36:59.080Z,100044.00
2018-08-18T07:39:03.679Z,100051.00
2018-08-18T07:41:08.245Z,100047.00
2018-08-18T07:43:33.105Z,100052.00
2018-08-18T07:45:38.130Z,100056.00
2018-08-18T07:47:42.615Z,100062.00
2018-08-18T07:49:47.167Z,100053.00
2018-08-18T07:51:51.614Z,100057.00
2018-08-18T07:53:56.868Z,100050.00
2018-08-18T07:56:02.165Z,100050.00
2018-08-18T07:58:13.440Z,100051.00
2018-08-18T08:00:18.326Z,100053.00
2018-08-18T08:02:22.775Z,100048.00
2018-08-18T08:04:27.327Z,100052.00
2018-08-18T08:06:32.738Z,100053.00
2018-08-18T08:08:42.586Z,100046.00
2018-08-18T08:10:47.214Z,100055.00
2018-08-18T08:12:51.923Z,100054.00
2018-08-18T08:14:57.097Z,100052.00
2018-08-18T08:17:01.678Z,100057.00
2018-08-18T08:19:06.197Z,100060.00
2018-08-18T08:21:11.245Z,100053.00
2018-08-18T08:23:15.748Z,100058.00
2018-08-18T08:25:20.451Z,100061.00
2018-08-18T08:27:25.007Z,100059.00
2018-08-18T08:29:37.144Z,100063.00
2018-08-18T08:31:41.662Z,100063.00
2018-08-18T08:33:47.250Z,100065.00
2018-08-18T08:35:52.481Z,100073.00
2018-08-18T08:37:57.566Z,100070.00
2018-08-18T08:40:05.851Z,100073.00
2018-08-18T08:42:10.387Z,100070.00
2018-08-18T08:44:14.894Z,100074.00
2018-08-18T08:46:19.677Z,100081.00
2018-08-18T08:48:24.110Z,100078.00
2018-08-18T08:50:28.658Z,100085.00
2018-08-18T08:52:38.943Z,100084.00
2018-08-18T08:54:43.437Z,100078.00
2018-08-18T08:56:47.882Z,100087.00
2018-08-18T08:58:52.668Z,100078.00
2018-08-18T09:00:57.761Z,100082.00
2018-08-18T09:03:02.221Z,100081.00
2018-08-18T09:05:07.293Z,100080.00
2018-08-18T09:07:12.714Z,100066.00
2018-08-18T09:09:17.663Z,100064.00
2018-08-18T09:11:22.165Z,100060.00
2018-08-18T09:13:26.763Z,100076.00
2018-08-18T09:15:31.286Z,100065.00
2018-08-18T09:17:35.886Z,100063.00
2018-08-18T09:19:40.445Z,100068.00
2018-08-18T09:21:50.275Z,100067.00
2018-08-18T09:23:55.563Z,100061.00
2018-08-18T09:26:00.142Z,100080.00
2018-08-18T09:28:05.096Z,100074.00
2018-08-18T09:30:09.637Z,100070.00
2018-08-18T09:32:14.606Z,100060.00
2018-08-18T09:34:19.476Z,100054.00
2018-08-18T09:36:24.085Z,100052.00
2018-08-18T09:38:28.606Z,100060.00
2018-08-18T09:40:34.087Z,100058.00
2018-08-18T09:42:39.638Z,100070.00
2018-08-18T09:44:47.678Z,100056.00
2018-08-18T09:46:52.998Z,100064.00
2018-08-18T09:48:58.296Z,100067.00
2018-08-18T09:51:03.193Z,100067.00
2018-08-18T09:53:07.702Z,100056.00
2018-08-18T09:55:12.480Z,100058.00
2018-08-18T09:57:17.122Z,100056.00
2018-08-18T09:59:22.091Z,100059.00
2018-08-18T10:01:33.194Z,100062.00
2018-08-18T10:03:37.703Z,100064.00
2018-08-18T10:05:42.370Z,100060.00
2018-08-18T10:07:46.950Z,100065.00
2018-08-18T10:09:52.121Z,100067.00
2018-08-18T10:11:56.600Z,100058.00
2018-08-18T10:14:01.199Z,100068.00
2018-08-18T10:16:05.847Z,100066.00
2018-08-18T10:18:10.606Z,100059.00
2018-08-18T10:20:15.130Z,100066.00
2018-08-18T10:22:19.732Z,100064.00
2018-08-18T10:24:24.220Z,100055.00
2018-08-18T10:26:28.738Z,100058.00
2018-08-18T10:28:33.201Z,100066.00
2018-08-18T10:30:37.694Z,100062.00
2018-08-18T10:32:47.205Z,100070.00
2018-08-18T10:34:52.062Z,100067.00
2018-08-18T10:37:11.007Z,100068.00
2018-08-18T10:39:16.221Z,100068.00
2018-08-18T10:41:20.738Z,100069.00
2018-08-18T10:43:25.242Z,100069.00
2018-08-18T10:45:29.719Z,100076.00
2018-08-18T10:47:34.166Z,100073.00
2018-08-18T10:49:55.517Z,100070.00
2018-08-18T10:52:16.892Z,100064.00
2018-08-18T10:54:21.374Z,100060.00
2018-08-18T10:56:25.915Z,100073.00
2018-08-18T10:58:47.463Z,100065.00
2018-08-18T11:00:51.948Z,100063.00
2018-08-18T11:02:57.710Z,100063.00
2018-08-18T11:05:02.303Z,100070.00
2018-08-18T11:07:06.829Z,100069.00
2018-08-18T11:09:11.293Z,100068.00
2018-08-18T11:11:18.734Z,100073.00
2018-08-18T11:13:23.175Z,100067.00
2018-08-18T11:15:27.786Z,100062.00
2018-08-18T11:17:32.650Z,100058.00
2018-08-18T11:19:37.211Z,100067.00
2018-08-18T11:21:41.662Z,100062.00
2018-08-18T11:23:46.627Z,100065.00
2018-08-18T11:25:52.337Z,100054.00
2018-08-18T11:27:57.594Z,100062.00
2018-08-18T11:30:02.449Z,100065.00
2018-08-18T11:32:06.958Z,100060.00
2018-08-18T11:34:11.423Z,100068.00
2018-08-18T11:36:15.935Z,100065.00
2018-08-18T11:38:20.474Z,100052.00
2018-08-18T11:40:25.842Z,100054.00
2018-08-18T11:42:30.412Z,100062.00
2018-08-18T11:44:34.863Z,100056.00
2018-08-18T11:46:43.670Z,100063.00
2018-08-18T11:48:48.459Z,100062.00
2018-08-18T11:50:55.250Z,100066.00
2018-08-18T11:53:01.278Z,100074.00
2018-08-18T11:55:06.455Z,100061.00
2018-08-18T11:57:10.934Z,100061.00
2018-08-18T11:59:16.429Z,100050.00
2018-08-18T12:01:25.514Z,100049.00
2018-08-18T12:03:33.870Z,100053.00
2018-08-18T12:05:55.575Z,100047.00
2018-08-18T12:08:03.869Z,100045.00
2018-08-18T12:10:08.402Z,100047.00
2018-08-18T12:12:13.154Z,100043.00
2018-08-18T12:14:17.856Z,100052.00
2018-08-18T12:16:22.422Z,100050.00
2018-08-18T12:18:28.989Z,100046.00
2018-08-18T12:20:33.540Z,100040.00
2018-08-18T12:22:37.960Z,100035.00
2018-08-18T12:24:44.392Z,100047.00
2018-08-18T12:27:08.723Z,100033.00
2018-08-18T12:29:13.174Z,100046.00
2018-08-18T12:31:19.293Z,100041.00
2018-08-18T12:33:23.818Z,100043.00
2018-08-18T12:35:31.692Z,100039.00
2018-08-18T12:37:36.296Z,100030.00
2018-08-18T12:39:40.796Z,100046.00
2018-08-18T12:41:45.229Z,100036.00
2018-08-18T12:43:52.170Z,100021.00
2018-08-18T12:45:57.701Z,100028.00
2018-08-18T12:48:07.576Z,100024.00
2018-08-18T12:50:12.495Z,100027.00
2018-08-18T12:52:16.941Z,100025.00
2018-08-18T12:54:21.493Z,100027.00
2018-08-18T12:56:28.200Z,100026.00
2018-08-18T12:58:32.908Z,100023.00
2018-08-18T13:00:37.458Z,100034.00
2018-08-18T13:02:47.941Z,100020.00
2018-08-18T13:04:52.508Z,100016.00
2018-08-18T13:06:56.952Z,100021.00
2018-08-18T13:09:01.418Z,100024.00
2018-08-18T13:11:05.942Z,100024.00
2018-08-18T13:13:10.438Z,100017.00
2018-08-18T13:15:16.757Z,100014.00
2018-08-18T13:17:21.306Z,100025.00
2018-08-18T13:19:30.284Z,100018.00
2018-08-18T13:21:37.565Z,100013.00
2018-08-18T13:23:45.382Z,100008.00
2018-08-18T13:25:50.210Z,99999.00
2018-08-18T13:27:55.958Z,99994.00
2018-08-18T13:30:00.409Z,99994.00
2018-08-18T13:32:04.870Z,99998.00
2018-08-18T13:34:11.746Z,100001.00
2018-08-18T13:36:16.444Z,99998.00
2018-08-18T13:38:29.055Z,99995.00
2018-08-18T13:40:33.757Z,99990.00
2018-08-18T13:42:38.467Z,99991.00
2018-08-18T13:44:42.899Z,99996.00
2018-08-18T13:46:50.593Z,100003.00
2018-08-18T13:49:00.062Z,99993.00
2018-08-18T13:51:04.585Z,99996.00
2018-08-18T13:53:09.102Z,99988.00
2018-08-18T13:55:13.600Z,99987.00
2018-08-18T13:57:22.608Z,99984.00
2018-08-18T13:59:39.588Z,99992.00
2018-08-18T14:01:46.007Z,99991.00
2018-08-18T14:03:50.423Z,99981.00
2018-08-18T14:05:55.921Z,99988.00
2018-08-18T14:08:03.464Z,99991.00
2018-08-18T14:10:07.982Z,99991.00
2018-08-18T14:12:17.681Z,99974.00
2018-08-18T14:14:22.135Z,99982.00
2018-08-18T14:16:28.106Z,99981.00
2018-08-18T14:18:33.486Z,99971.00
2018-08-18T14:20:45.747Z,99987.00
2018-08-18T14:22:54.555Z,99984.00
2018-08-18T14:24:59.576Z,99979.00
2018-08-18T14:27:05.773Z,99976.00
2018-08-18T14:29:10.482Z,99970.00
2018-08-18T14:31:15.247Z,99982.00
2018-08-18T14:33:19.775Z,99973.00
2018-08-18T14:35:24.263Z,99971.00
2018-08-18T14:37:28.727Z,99966.00
2018-08-18T14:39:40.259Z,99971.00
2018-08-18T14:41:44.800Z,99975.00
2018-08-18T14:43:49.242Z,99982.00
2018-08-18T14:45:53.872Z,99969.00
2018-08-18T14:47:58.305Z,99979.00
2018-08-18T14:50:32.117Z,99991.00
2018-08-18T14:52:36.602Z,99979.00
2018-08-18T14:54:41.057Z,99978.00
2018-08-18T14:56:45.542Z,99976.00
2018-08-18T14:58:50.034Z,99976.00
2018-08-18T15:01:15.174Z,99979.00
2018-08-18T15:03:19.878Z,99973.00
2018-08-18T15:05:24.780Z,99976.00
2018-08-18T15:07:31.149Z,99972.00
2018-08-18T15:09:45.397Z,99969.00
2018-08-18T15:11:49.817Z,99975.00
2018-08-18T15:13:54.230Z,99973.00
2018-08-18T15:15:58.686Z,99978.00
2018-08-18T15:18:08.475Z,99973.00
2018-08-18T15:20:12.890Z,99968.00
2018-08-18T15:22:17.375Z,99972.00
2018-08-18T15:24:22.217Z,99974.00
2018-08-18T15:26:26.897Z,99971.00
2018-08-18T15:28:31.483Z,99963.00
2018-08-18T15:30:37.159Z,99976.00
2018-08-18T15:32:41.765Z,99969.00
2018-08-18T15:34:46.407Z,99971.00
2018-08-18T15:36:50.866Z,99968.00
2018-08-18T15:38:55.405Z,99965.00
2018-08-18T15:40:59.886Z,99966.00
2018-08-18T15:43:04.593Z,99970.00
2018-08-18T15:45:09.253Z,99968.00
2018-08-18T15:47:13.703Z,99971.00
2018-08-18T15:49:18.191Z,99967.00
2018-08-18T15:51:22.635Z,99968.00
2018-08-18T15:53:56.195Z,99962.00
2018-08-18T15:56:01.038Z,99959.00
2018-08-18T15:58:05.555Z,99956.00
2018-08-18T16:00:30.751Z,99955.00
2018-08-18T16:02:35.152Z,99953.00
2018-08-18T16:04:40.016Z,99957.00
2018-08-18T16:06:44.486Z,99953.00
2018-08-18T16:08:48.922Z,99955.00
2018-08-18T16:10:53.654Z,99955.00
2018-08-18T16:12:58.193Z,99941.00
2018-08-18T16:15:02.655Z,99949.00
2018-08-18T16:17:07.122Z,99941.00
2018-08-18T16:19:14.834Z,99951.00
2018-08-18T16:21:23.438Z,99953.00
2018-08-18T16:23:27.944Z,99956.00
2018-08-18T16:25:38.437Z,99942.00
2018-08-18T16:27:43.287Z,99947.00
2018-08-18T16:29:48.104Z,99950.00
2018-08-18T16:32:07.584Z,99954.00
2018-08-18T16:34:12.168Z,99947.00
2018-08-18T16:36:16.515Z,99951.00
2018-08-18T16:38:22.550Z,99951.00
2018-08-18T16:40:27.061Z,99945.00
2018-08-18T16:42:33.807Z,99950.00
2018-08-18T16:44:38.526Z,99941.00
2018-08-18T16:46:43.175Z,99945.00
2018-08-18T16:48:49.046Z,99948.00
2018-08-18T16:50:54.070Z,99955.00
2018-08-18T16:53:01.023Z,99949.00
2018-08-18T16:55:06.220Z,99959.00
2018-08-18T16:57:10.843Z,99956.00
2018-08-18T16:59:15.495Z,99947.00
2018-08-18T17:01:20.348Z,99952.00
2018-08-18T17:03:34.998Z,99956.00
2018-08-18T17:05:39.497Z,99963.00
2018-08-18T17:07:44.404Z,99957.00
2018-08-18T17:09:48.891Z,99965.00
2018-08-18T17:12:04.215Z,99963.00
2018-08-18T17:14:13.351Z,99962.00
2018-08-18T17:16:17.907Z,99964.00
2018-08-18T17:18:22.338Z,99968.00
2018-08-18T17:20:26.843Z,99964.00
2018-08-18T17:22:31.306Z,99971.00
2018-08-18T17:24:35.974Z,99969.00
2018-08-18T17:26:44.350Z,99975.00
2018-08-18T17:28:48.736Z,99977.00
2018-08-18T17:30:53.678Z,99975.00
2018-08-18T17:33:01.529Z,99977.00
2018-08-18T17:35:06.262Z,99980.00
2018-08-18T17:37:11.391Z,99981.00
2018-08-18T17:39:15.841Z,99984.00
2018-08-18T17:41:20.265Z,99994.00
2018-08-18T17:43:24.738Z,99978.00
2018-08-18T17:45:29.275Z,99983.00
2018-08-18T17:47:39.314Z,99991.00
2018-08-18T17:49:49.197Z,99986.00
2018-08-18T17:52:05.726Z,99979.00
2018-08-18T17:54:10.470Z,99981.00
2018-08-18T17:56:16.837Z,99988.00
2018-08-18T17:58:21.314Z,99993.00
2018-08-18T18:00:25.853Z,99987.00
2018-08-18T18:02:30.246Z,99988.00
2018-08-18T18:04:34.982Z,99987.00
2018-08-18T18:06:39.687Z,99983.00
2018-08-18T18:08:44.554Z,99988.00
2018-08-18T18:10:49.285Z,99988.00
2018-08-18T18:12:53.799Z,99984.00
2018-08-18T18:14:58.278Z,99989.00
2018-08-18T18:17:02.909Z,99985.00
2018-08-18T18:19:07.478Z,99997.00
2018-08-18T18:21:12.043Z,99995.00
2018-08-18T18:23:17.482Z,99992.00
2018-08-18T18:25:22.391Z,100003.00
2018-08-18T18:27:27.014Z,99998.00
2018-08-18T18:29:31.426Z,99991.00
2018-08-18T18:31:35.914Z,100001.00
2018-08-18T18:33:40.531Z,100007.00
2018-08-18T18:35:45.342Z,100010.00
2018-08-18T18:37:50.345Z,100014.00
2018-08-18T18:40:00.454Z,100005.00
2018-08-18T18:42:07.369Z,100014.00
2018-08-18T18:44:12.678Z,100011.00
2018-08-18T18:46:17.155Z,100012.00
2018-08-18T18:48:21.741Z,100017.00
2018-08-18T18:50:26.274Z,100013.00
2018-08-18T18:52:30.854Z,100014.00
2018-08-18T18:54:35.394Z,100017.00
2018-08-18T18:56:40.599Z,100025.00
2018-08-18T18:58:45.049Z,100023.00
2018-08-18T19:00:56.260Z,100014.00
2018-08-18T19:03:01.035Z,100020.00
2018-08-18T19:05:21.912Z,100026.00
2018-08-18T19:07:26.434Z,100037.00
2018-08-18T19:09:31.367Z,100030.00
2018-08-18T19:11:36.215Z,100037.00
2018-08-18T19:13:40.923Z,100042.00
2018-08-18T19:15:45.574Z,100047.00
2018-08-18T19:17:50.295Z,100053.00
2018-08-18T19:20:12.616Z,100044.00
2018-08-18T19:22:17.248Z,100048.00
2018-08-18T19:24:26.487Z,100050.00
2018-08-18T19:26:57.895Z,100050.00
2018-08-18T19:29:02.656Z,100066.00
2018-08-18T19:31:07.322Z,100064.00
2018-08-18T19:33:13.007Z,100057.00
2018-08-18T19:35:17.628Z,100066.00
2018-08-18T19:37:22.335Z,100064.00
2018-08-18T19:39:27.899Z,100075.00
2018-08-18T19:41:32.623Z,100067.00
2018-08-18T19:43:37.738Z,100075.00
2018-08-18T19:45:42.470Z,100077.00
2018-08-18T19:47:48.239Z,100075.00
2018-08-18T19:49:52.673Z,100081.00
2018-08-18T19:52:01.844Z,100079.00
2018-08-18T19:54:06.626Z,100076.00
2018-08-18T19:56:11.512Z,100068.00
2018-08-18T19:58:15.979Z,100077.00
2018-08-18T20:00:20.560Z,100079.00
2018-08-18T20:02:24.955Z,100075.00
2018-08-18T20:04:29.384Z,100075.00
2018-08-18T20:06:33.964Z,100070.00
2018-08-18T20:08:38.587Z,100078.00
2018-08-18T20:10:48.877Z,100085.00
2018-08-18T20:12:54.210Z,100092.00
2018-08-18T20:14:58.740Z,100083.00
2018-08-18T20:17:03.223Z,100078.00
2018-08-18T20:19:07.997Z,100081.00
2018-08-18T20:21:12.479Z,100073.00
2018-08-18T20:23:19.219Z,100080.00
2018-08-18T20:25:23.841Z,100079.00
2018-08-18T20:27:28.324Z,100087.00
2018-08-18T20:29:32.777Z,100083.00
2018-08-18T20:31:42.332Z,100081.00
2018-08-18T20:33:49.757Z,100069.00
2018-08-18T20:35:54.846Z,100084.00
2018-08-18T20:37:59.755Z,100078.00
2018-08-18T20:40:05.099Z,100078.00
2018-08-18T20:42:10.099Z,100081.00
2018-08-18T20:44:14.670Z,100078.00
2018-08-18T20:46:19.291Z,100078.00
2018-08-18T20:48:23.723Z,100069.00
2018-08-18T20:50:28.163Z,100073.00
2018-08-18T20:52:32.670Z,100070.00
2018-08-18T20:54:37.252Z,100080.00
2018-08-18T20:56:42.783Z,100082.00
2018-08-18T20:58:47.357Z,100081.00
2018-08-18T21:00:54.739Z,100083.00
2018-08-18T21:02:59.369Z,100081.00
2018-08-18T21:05:05.791Z,100081.00
2018-08-18T21:07:10.232Z,100077.00
2018-08-18T21:09:29.309Z,100082.00
2018-08-18T21:11:33.906Z,100082.00
2018-08-18T21:13:39.254Z,100088.00
2018-08-18T21:15:43.760Z,100086.00
2018-08-18T21:17:48.229Z,100091.00
2018-08-18T21:19:53.292Z,100099.00
2018-08-18T21:21:58.163Z,100096.00
2018-08-18T21:24:02.926Z,100099.00
2018-08-18T21:26:07.583Z,100096.00
2018-08-18T21:28:13.050Z,100096.00
2018-08-18T21:30:18.714Z,100092.00
2018-08-18T21:32:25.350Z,100100.00
2018-08-18T21:34:32.971Z,100102.00
2018-08-18T21:36:39.533Z,100105.00
2018-08-18T21:38:44.159Z,100106.00
2018-08-18T21:40:54.435Z,100102.00
2018-08-18T21:42:58.963Z,100098.00
2018-08-18T21:45:05.126Z,100103.00
2018-08-18T21:47:09.570Z,100097.00
2018-08-18T21:49:14.282Z,100108.00
2018-08-18T21:51:21.867Z,100105.00
2018-08-18T21:53:26.322Z,100107.00
2018-08-18T21:55:31.419Z,100105.00
2018-08-18T21:57:53.328Z,100101.00
2018-08-18T21:59:59.277Z,100107.00
2018-08-18T22:02:03.823Z,100118.00
2018-08-18T22:04:09.490Z,100116.00
2018-08-18T22:06:14.138Z,100118.00
2018-08-18T22:08:18.619Z,100115.00
2018-08-18T22:10:23.055Z,100119.00
2018-08-18T22:12:27.466Z,100120.00
2018-08-18T22:14:31.958Z,100112.00
2018-08-18T22:16:41.094Z,100124.00
2018-08-18T22:19:04.222Z,100119.00
2018-08-18T22:21:15.908Z,100119.00
2018-08-18T22:23:22.653Z,100113.00
2018-08-18T22:25:27.159Z,100121.00
2018-08-18T22:27:33.694Z,100120.00
2018-08-18T22:29:38.127Z,100129.00
2018-08-18T22:31:44.158Z,100125.00
2018-08-18T22:33:48.631Z,100122.00
2018-08-18T22:35:57.901Z,100121.00
2018-08-18T22:38:02.537Z,100120.00
2018-08-18T22:40:08.022Z,100121.00
2018-08-18T22:42:12.653Z,100120.00
2018-08-18T22:44:17.106Z,100122.00
2018-08-18T22:46:22.546Z,100128.00
2018-08-18T22:48:27.070Z,100128.00
2018-08-18T22:50:31.506Z,100127.00
2018-08-18T22:52:36.025Z,100125.00
2018-08-18T22:54:40.442Z,100124.00
2018-08-18T22:56:49.072Z,100130.00
2018-08-18T22:58:58.724Z,100125.00
2018-08-18T23:01:03.229Z,100128.00
2018-08-18T23:03:07.823Z,100140.00
2018-08-18T23:05:12.262Z,100142.00
2018-08-18T23:07:16.722Z,100133.00
2018-08-18T23:09:21.178Z,100136.00
2018-08-18T23:11:25.610Z,100139.00
2018-08-18T23:13:30.058Z,100129.00
2018-08-18T23:15:34.515Z,100128.00
2018-08-18T23:17:39.025Z,100130.00
2018-08-18T23:19:43.465Z,100132.00
2018-08-18T23:21:47.906Z,100128.00
2018-08-18T23:23:52.363Z,100139.00
2018-08-18T23:25:56.902Z,100139.00
2018-08-18T23:28:01.413Z,100137.00
2018-08-18T23:30:06.932Z,100133.00
2018-08-18T23:32:17.338Z,100143.00
2018-08-18T23:34:21.854Z,100137.00
2018-08-18T23:36:26.347Z,100128.00
2018-08-18T23:38:30.803Z,100131.00
2018-08-18T23:40:35.263Z,100136.00
2018-08-18T23:42:39.689Z,100122.00
2018-08-18T23:44:44.319Z,100128.00
2018-08-18T23:46:48.719Z,100135.00
2018-08-18T23:48:53.318Z,100126.00
2018-08-18T23:50:57.742Z,100134.00
2018-08-18T23:53:05.225Z,100125.00
2018-08-18T23:55:09.713Z,100132.00
2018-08-18T23:57:18.178Z,100121.00
2018-08-18T23:59:24.282Z,100117.00
